createdAt,value
2022-11-17T00:00:02.780Z,2.05
2022-11-17T00:04:15.101Z,2.06
2022-11-17T00:08:27.383Z,1.96
2022-11-17T00:12:59.063Z,1.85
2022-11-17T00:17:13.734Z,1.82
2022-11-17T00:21:27.866Z,1.76
2022-11-17T00:25:40.146Z,1.62
2022-11-17T00:29:52.468Z,1.67
2022-11-17T00:34:07.758Z,1.67
2022-11-17T00:38:20.422Z,1.69
2022-11-17T00:42:32.671Z,1.70
2022-11-17T00:46:46.634Z,1.65
2022-11-17T00:50:58.910Z,1.75
2022-11-17T00:55:11.194Z,1.85
2022-11-17T00:59:23.598Z,1.92
2022-11-17T01:03:37.317Z,1.83
2022-11-17T01:07:49.812Z,2.00
2022-11-17T01:12:02.112Z,2.01
2022-11-17T01:16:17.712Z,2.15
2022-11-17T01:20:30.023Z,2.34
2022-11-17T01:24:42.300Z,2.38
2022-11-17T01:28:55.341Z,2.39
2022-11-17T01:33:07.610Z,2.23
2022-11-17T01:37:19.926Z,2.29
2022-11-17T01:41:32.199Z,2.54
2022-11-17T01:45:45.180Z,2.66
2022-11-17T01:50:10.865Z,2.63
2022-11-17T01:54:26.613Z,2.52
2022-11-17T01:58:44.642Z,2.72
2022-11-17T02:02:57.570Z,2.79
2022-11-17T02:07:30.583Z,2.72
2022-11-17T02:11:43.048Z,2.68
2022-11-17T02:15:55.317Z,2.84
2022-11-17T02:20:07.996Z,2.80
2022-11-17T02:24:41.532Z,2.74
2022-11-17T02:29:02.193Z,2.70
2022-11-17T02:33:24.251Z,2.51
2022-11-17T02:37:53.165Z,2.63
2022-11-17T02:42:12.031Z,2.80
2022-11-17T02:46:26.523Z,2.78
2022-11-17T02:50:40.969Z,2.82
2022-11-17T02:54:53.265Z,2.88
2022-11-17T02:59:06.333Z,2.94
2022-11-17T03:03:24.358Z,3.07
2022-11-17T03:07:51.577Z,3.01
2022-11-17T03:12:14.976Z,3.12
2022-11-17T03:16:44.723Z,3.19
2022-11-17T03:21:20.327Z,3.31
2022-11-17T03:25:35.591Z,3.35
2022-11-17T03:29:51.380Z,3.25
2022-11-17T03:34:07.856Z,3.17
2022-11-17T03:38:23.754Z,3.15
2022-11-17T03:42:38.975Z,3.11
2022-11-17T03:46:55.651Z,3.06
2022-11-17T03:51:14.065Z,2.95
2022-11-17T03:55:34.908Z,2.71
2022-11-17T04:00:03.286Z,2.75
2022-11-17T04:04:18.159Z,2.97
2022-11-17T04:08:31.471Z,3.11
2022-11-17T04:13:02.539Z,3.18
2022-11-17T04:17:14.832Z,3.37
2022-11-17T04:21:27.481Z,3.32
2022-11-17T04:26:01.274Z,3.39
2022-11-17T04:30:13.769Z,3.34
2022-11-17T04:34:26.234Z,3.46
2022-11-17T04:38:42.402Z,3.54
2022-11-17T04:42:54.658Z,3.63
2022-11-17T04:47:07.766Z,3.72
2022-11-17T04:51:20.069Z,3.79
2022-11-17T04:55:33.286Z,3.89
2022-11-17T04:59:45.533Z,3.89
2022-11-17T05:04:00.863Z,3.91
2022-11-17T05:08:13.224Z,3.91
2022-11-17T05:12:44.254Z,3.94
2022-11-17T05:17:12.125Z,4.07
2022-11-17T05:21:24.439Z,4.02
2022-11-17T05:25:36.742Z,4.16
2022-11-17T05:29:49.625Z,4.22
2022-11-17T05:34:03.898Z,4.11
2022-11-17T05:38:16.161Z,4.13
2022-11-17T05:42:28.425Z,4.20
2022-11-17T05:46:40.695Z,4.36
2022-11-17T05:50:57.178Z,4.37
2022-11-17T05:55:09.525Z,4.40
2022-11-17T05:59:31.409Z,4.49
2022-11-17T06:03:53.439Z,4.49
2022-11-17T06:08:06.137Z,4.54
2022-11-17T06:12:18.494Z,4.57
2022-11-17T06:16:35.646Z,4.57
2022-11-17T06:20:51.602Z,4.75
2022-11-17T06:25:05.945Z,4.66
2022-11-17T06:29:18.333Z,4.75
2022-11-17T06:33:40.951Z,4.77
2022-11-17T06:37:53.232Z,4.63
2022-11-17T06:42:05.613Z,4.77
2022-11-17T06:46:18.294Z,4.87
2022-11-17T06:50:30.781Z,4.76
2022-11-17T06:54:43.050Z,4.89
2022-11-17T06:58:56.973Z,4.96
2022-11-17T07:03:10.995Z,5.12
2022-11-17T07:07:23.366Z,5.11
2022-11-17T07:11:37.154Z,5.27
2022-11-17T07:15:50.931Z,5.24
2022-11-17T07:20:03.329Z,5.19
2022-11-17T07:24:15.613Z,5.33
2022-11-17T07:28:28.495Z,5.28
2022-11-17T07:32:40.814Z,5.32
2022-11-17T07:36:53.103Z,5.36
2022-11-17T07:41:06.819Z,5.47
2022-11-17T07:45:19.259Z,5.70
2022-11-17T07:49:31.542Z,5.87
2022-11-17T07:53:44.254Z,6.01
2022-11-17T07:58:02.102Z,6.08
2022-11-17T08:02:14.671Z,6.19
2022-11-17T08:06:27.049Z,6.19
2022-11-17T08:10:39.346Z,6.38
2022-11-17T08:14:51.694Z,6.56
2022-11-17T08:19:06.891Z,6.49
2022-11-17T08:23:19.449Z,6.62
2022-11-17T08:27:31.778Z,6.81
2022-11-17T08:31:46.947Z,6.80
2022-11-17T08:36:03.271Z,6.66
2022-11-17T08:40:16.806Z,6.85
2022-11-17T08:44:29.073Z,7.24
2022-11-17T08:48:41.650Z,7.52
2022-11-17T08:52:54.658Z,7.59
2022-11-17T08:57:07.005Z,7.74
2022-11-17T09:01:19.618Z,7.71
2022-11-17T09:05:31.972Z,7.81
2022-11-17T09:09:44.674Z,7.94
2022-11-17T09:13:57.232Z,8.15
2022-11-17T09:18:09.601Z,8.64
2022-11-17T09:22:22.023Z,9.11
2022-11-17T09:26:34.607Z,9.22
2022-11-17T09:30:47.326Z,9.32
2022-11-17T09:34:59.652Z,9.68
2022-11-17T09:39:11.942Z,9.99
2022-11-17T09:43:36.546Z,10.49
2022-11-17T09:48:25.510Z,10.98
2022-11-17T09:52:53.784Z,10.73
2022-11-17T09:57:13.159Z,11.24
2022-11-17T10:01:29.155Z,11.53
2022-11-17T10:05:41.516Z,11.84
2022-11-17T10:09:55.506Z,11.74
2022-11-17T10:14:16.957Z,12.00
2022-11-17T10:18:37.702Z,12.32
2022-11-17T10:22:52.893Z,12.56
2022-11-17T10:27:24.725Z,12.86
2022-11-17T10:31:45.716Z,12.79
2022-11-17T10:36:07.716Z,13.01
2022-11-17T10:40:25.758Z,13.58
2022-11-17T10:44:42.652Z,13.21
2022-11-17T10:48:58.565Z,12.95
2022-11-17T10:53:27.708Z,13.03
2022-11-17T10:57:44.901Z,13.75
2022-11-17T11:01:57.338Z,14.36
2022-11-17T11:06:34.564Z,14.33
2022-11-17T11:10:50.986Z,14.64
2022-11-17T11:15:04.398Z,15.10
2022-11-17T11:19:22.810Z,15.84
2022-11-17T11:23:49.423Z,16.15
2022-11-17T11:28:12.218Z,14.65
2022-11-17T11:32:45.496Z,14.66
2022-11-17T11:37:05.134Z,13.63
2022-11-17T11:41:41.665Z,13.15
2022-11-17T11:45:59.998Z,12.80
2022-11-17T11:50:54.167Z,12.42
2022-11-17T11:55:15.760Z,12.29
2022-11-17T11:59:51.503Z,12.61
2022-11-17T12:04:41.128Z,12.28
2022-11-17T12:09:07.294Z,12.35
2022-11-17T12:13:22.703Z,12.25
2022-11-17T12:17:35.153Z,12.40
2022-11-17T12:21:55.072Z,12.35
2022-11-17T12:26:22.778Z,12.16
2022-11-17T12:30:35.056Z,12.33
2022-11-17T12:35:25.964Z,12.26
2022-11-17T12:39:56.622Z,12.15
2022-11-17T12:44:40.081Z,12.08
2022-11-17T12:49:08.395Z,12.38
2022-11-17T12:53:29.924Z,12.81
2022-11-17T12:57:44.900Z,12.83
2022-11-17T13:02:28.853Z,12.65
2022-11-17T13:07:04.822Z,12.82
2022-11-17T13:11:18.397Z,12.90
2022-11-17T13:15:30.758Z,13.72
2022-11-17T13:19:43.430Z,13.72
2022-11-17T13:23:56.585Z,13.30
2022-11-17T13:28:26.940Z,13.28
2022-11-17T13:32:42.893Z,13.07
2022-11-17T13:37:00.243Z,13.21
2022-11-17T13:41:12.598Z,13.52
2022-11-17T13:45:25.588Z,13.11
2022-11-17T13:49:39.475Z,12.76
2022-11-17T13:53:57.010Z,12.46
2022-11-17T13:58:47.825Z,12.13
2022-11-17T14:03:06.997Z,12.00
2022-11-17T14:07:30.072Z,11.99
2022-11-17T14:11:42.721Z,11.80
2022-11-17T14:15:57.994Z,11.60
2022-11-17T14:20:39.665Z,11.22
2022-11-17T14:24:52.179Z,11.07
2022-11-17T14:29:05.623Z,11.00
2022-11-17T14:33:18.204Z,10.83
2022-11-17T14:37:32.978Z,10.55
2022-11-17T14:41:46.196Z,10.24
2022-11-17T14:45:58.983Z,9.87
2022-11-17T14:50:17.606Z,9.68
2022-11-17T14:54:29.931Z,9.58
2022-11-17T14:58:42.642Z,9.46
2022-11-17T15:02:54.998Z,9.26
2022-11-17T15:07:08.136Z,9.18
2022-11-17T15:11:20.574Z,9.10
2022-11-17T15:15:33.998Z,9.22
2022-11-17T15:19:54.414Z,8.97
2022-11-17T15:24:07.236Z,8.83
2022-11-17T15:28:23.077Z,8.55
2022-11-17T15:32:35.510Z,8.46
2022-11-17T15:36:49.865Z,8.24
2022-11-17T15:41:02.184Z,8.11
2022-11-17T15:45:14.502Z,8.01
2022-11-17T15:49:26.779Z,7.91
2022-11-17T15:53:40.282Z,7.70
2022-11-17T15:57:54.379Z,7.71
2022-11-17T16:02:10.554Z,7.59
2022-11-17T16:06:23.038Z,7.56
2022-11-17T16:10:35.380Z,7.46
2022-11-17T16:14:47.678Z,7.40
2022-11-17T16:19:01.075Z,7.49
2022-11-17T16:23:13.598Z,7.57
2022-11-17T16:27:25.856Z,7.61
2022-11-17T16:31:48.117Z,7.63
2022-11-17T16:36:06.167Z,7.61
2022-11-17T16:40:19.294Z,7.51
2022-11-17T16:44:31.622Z,7.42
2022-11-17T16:48:43.945Z,7.41
2022-11-17T16:52:56.242Z,7.43
2022-11-17T16:57:08.886Z,7.40
2022-11-17T17:01:23.943Z,7.36
2022-11-17T17:05:41.085Z,7.24
2022-11-17T17:09:53.397Z,7.08
2022-11-17T17:14:09.034Z,7.09
2022-11-17T17:18:21.364Z,7.11
2022-11-17T17:22:33.670Z,7.13
2022-11-17T17:26:46.107Z,7.20
2022-11-17T17:30:58.877Z,7.31
2022-11-17T17:35:11.170Z,7.36
2022-11-17T17:39:23.434Z,7.43
2022-11-17T17:43:36.546Z,7.56
2022-11-17T17:47:56.122Z,7.71
2022-11-17T17:52:18.419Z,7.65
2022-11-17T17:56:33.579Z,7.58
2022-11-17T18:00:48.086Z,7.41
2022-11-17T18:05:00.346Z,7.37
2022-11-17T18:09:15.153Z,7.20
2022-11-17T18:13:32.391Z,7.20
2022-11-17T18:17:44.663Z,6.92
2022-11-17T18:21:56.937Z,7.00
2022-11-17T18:26:18.460Z,6.97
2022-11-17T18:30:30.791Z,6.96
2022-11-17T18:34:43.144Z,6.95
2022-11-17T18:38:57.409Z,7.10
2022-11-17T18:43:10.183Z,7.01
2022-11-17T18:47:22.498Z,7.09
2022-11-17T18:51:37.457Z,7.07
2022-11-17T18:55:50.105Z,7.16
2022-11-17T19:00:03.068Z,7.27
2022-11-17T19:04:15.525Z,7.33
2022-11-17T19:08:34.572Z,7.48
2022-11-17T19:12:46.854Z,7.35
2022-11-17T19:16:59.157Z,7.31
2022-11-17T19:21:14.084Z,7.28
2022-11-17T19:25:26.371Z,7.35
2022-11-17T19:29:40.914Z,7.23
2022-11-17T19:33:54.894Z,7.37
2022-11-17T19:38:07.903Z,7.47
2022-11-17T19:42:20.151Z,7.47
2022-11-17T19:46:33.402Z,7.57
2022-11-17T19:50:56.038Z,7.59
2022-11-17T19:55:08.845Z,7.58
2022-11-17T19:59:21.525Z,7.65
2022-11-17T20:03:35.417Z,7.74
2022-11-17T20:07:47.746Z,7.71
2022-11-17T20:12:00.004Z,7.63
2022-11-17T20:16:18.142Z,7.65
2022-11-17T20:20:30.416Z,7.79
2022-11-17T20:24:42.683Z,7.58
2022-11-17T20:28:56.037Z,7.57
2022-11-17T20:33:08.446Z,7.65
2022-11-17T20:37:20.744Z,7.65
2022-11-17T20:41:33.242Z,7.65
2022-11-17T20:45:54.349Z,7.31
2022-11-17T20:50:07.082Z,7.10
2022-11-17T20:54:19.399Z,7.00
2022-11-17T20:58:31.753Z,6.94
2022-11-17T21:02:44.060Z,6.89
2022-11-17T21:06:56.355Z,6.84
2022-11-17T21:11:11.740Z,6.89
2022-11-17T21:15:24.073Z,6.94
2022-11-17T21:19:39.006Z,6.87
2022-11-17T21:23:55.318Z,6.88
2022-11-17T21:28:07.695Z,6.83
2022-11-17T21:32:20.365Z,6.85
2022-11-17T21:36:34.144Z,6.94
2022-11-17T21:40:46.433Z,7.05
2022-11-17T21:44:58.703Z,7.04
2022-11-17T21:49:10.970Z,7.04
2022-11-17T21:53:23.252Z,7.14
2022-11-17T21:57:35.518Z,7.25
2022-11-17T22:01:47.795Z,7.24
2022-11-17T22:06:11.358Z,7.34
2022-11-17T22:10:23.906Z,7.35
2022-11-17T22:14:36.177Z,7.51
2022-11-17T22:18:51.438Z,7.55
2022-11-17T22:23:03.704Z,7.79
2022-11-17T22:27:16.325Z,8.03
2022-11-17T22:31:28.746Z,8.38
2022-11-17T22:35:41.023Z,8.46
2022-11-17T22:39:53.467Z,8.73
2022-11-17T22:44:07.077Z,8.80
2022-11-17T22:48:19.485Z,8.94
2022-11-17T22:52:40.756Z,8.98
2022-11-17T22:56:53.050Z,9.02
2022-11-17T23:01:07.174Z,9.01
2022-11-17T23:05:20.358Z,9.02
2022-11-17T23:09:32.714Z,8.89
2022-11-17T23:13:44.988Z,8.93
2022-11-17T23:17:57.286Z,8.82
2022-11-17T23:22:09.549Z,8.89
2022-11-17T23:26:23.117Z,8.80
2022-11-17T23:30:35.410Z,8.65
2022-11-17T23:34:47.755Z,8.73
2022-11-17T23:39:05.503Z,8.59
2022-11-17T23:43:17.858Z,8.59
2022-11-17T23:47:30.154Z,8.52
2022-11-17T23:51:42.467Z,8.44
2022-11-17T23:55:58.622Z,8.34
